createdAt,value
2018-10-21T19:29:36.748Z,7.97
2018-10-21T19:32:04.527Z,9.90
2018-10-21T19:34:32.172Z,10.97
2018-10-21T19:36:59.938Z,12.13
2018-10-21T19:39:27.644Z,10.33
2018-10-21T19:41:55.454Z,10.60
2018-10-21T19:44:23.124Z,12.43
2018-10-21T19:46:51.639Z,11.67
2018-10-21T19:49:19.441Z,11.27
2018-10-21T19:51:47.188Z,12.10
2018-10-21T19:54:14.787Z,9.43
2018-10-21T19:56:42.465Z,7.40
2018-10-21T19:59:10.267Z,7.73
2018-10-21T20:01:38.087Z,7.47
2018-10-21T20:04:05.810Z,8.17
2018-10-21T20:06:33.462Z,8.33
2018-10-21T20:09:01.116Z,7.73
2018-10-21T20:11:28.776Z,8.10
2018-10-21T20:13:56.523Z,8.17
2018-10-21T20:16:24.200Z,8.70
2018-10-21T20:18:52.179Z,7.97
2018-10-21T20:21:19.977Z,8.10
2018-10-21T20:23:47.741Z,8.33
2018-10-21T20:26:15.518Z,9.33
2018-10-21T20:28:43.339Z,8.63
2018-10-21T20:31:10.956Z,8.50
2018-10-21T20:33:38.650Z,6.57
2018-10-21T20:36:06.195Z,7.17
2018-10-21T20:38:33.927Z,5.83
2018-10-21T20:41:01.643Z,5.00
2018-10-21T20:43:29.343Z,4.97
2018-10-21T20:45:56.952Z,4.90
2018-10-21T20:48:24.854Z,5.10
2018-10-21T20:50:52.674Z,11.07
2018-10-21T20:53:20.380Z,5.13
2018-10-21T20:55:48.062Z,5.10
2018-10-21T20:58:15.874Z,4.63
2018-10-21T21:00:43.511Z,5.40
2018-10-21T21:03:11.150Z,4.60
2018-10-21T21:05:38.819Z,4.43
2018-10-21T21:08:06.531Z,4.93
2018-10-21T21:10:34.203Z,4.80
2018-10-21T21:13:01.843Z,4.30
2018-10-21T21:15:29.613Z,3.53
2018-10-21T21:17:57.307Z,5.13
2018-10-21T21:20:25.036Z,4.70
2018-10-21T21:22:52.663Z,3.73
2018-10-21T21:25:20.314Z,4.50
2018-10-21T21:27:47.987Z,3.60
2018-10-21T21:30:15.798Z,4.37
2018-10-21T21:32:43.492Z,4.67
2018-10-21T21:35:11.200Z,5.57
2018-10-21T21:37:38.961Z,3.77
2018-10-21T21:40:07.422Z,3.20
2018-10-21T21:42:35.107Z,4.20
2018-10-21T21:45:02.971Z,3.23
2018-10-21T21:47:30.571Z,4.40
2018-10-21T21:49:58.224Z,3.80
2018-10-21T21:52:25.919Z,4.10
2018-10-21T21:54:53.627Z,3.33
2018-10-21T21:57:21.243Z,3.40
2018-10-21T21:59:48.885Z,3.80
2018-10-21T22:02:16.547Z,4.30
2018-10-21T22:04:44.240Z,3.20
2018-10-21T22:07:12.595Z,3.30
2018-10-21T22:09:40.798Z,3.50
2018-10-21T22:12:08.401Z,3.63
2018-10-21T22:14:36.186Z,3.90
2018-10-21T22:17:03.883Z,3.67
2018-10-21T22:19:31.599Z,3.10
2018-10-21T22:21:59.273Z,3.60
2018-10-21T22:24:26.893Z,2.70
2018-10-21T22:26:54.515Z,3.20
2018-10-21T22:29:22.151Z,3.60
2018-10-21T22:31:49.891Z,3.00
2018-10-21T22:34:17.812Z,4.03
2018-10-21T22:36:45.386Z,2.83
2018-10-21T22:39:13.045Z,2.90
2018-10-21T22:41:40.736Z,3.20
2018-10-21T22:44:08.460Z,3.10
2018-10-21T22:46:36.282Z,2.67
2018-10-21T22:49:04.424Z,3.20
2018-10-21T22:51:32.103Z,2.87
2018-10-21T22:53:59.858Z,3.00
2018-10-21T22:56:27.563Z,3.30
2018-10-21T22:58:55.256Z,2.87
2018-10-21T23:01:22.912Z,2.43
2018-10-21T23:03:50.616Z,2.67
2018-10-21T23:06:18.304Z,3.13
2018-10-21T23:08:45.947Z,2.63
2018-10-21T23:11:13.626Z,3.07
2018-10-21T23:13:41.287Z,2.80
2018-10-21T23:16:09.326Z,2.90
2018-10-21T23:18:37.018Z,3.00
2018-10-21T23:21:04.891Z,2.83
2018-10-21T23:23:32.565Z,2.60
2018-10-21T23:26:00.242Z,3.20
2018-10-21T23:28:27.896Z,3.17
2018-10-21T23:30:55.528Z,3.43
2018-10-21T23:33:23.160Z,2.83
2018-10-21T23:35:50.803Z,2.20
2018-10-21T23:38:18.426Z,3.27
2018-10-21T23:40:46.133Z,3.60
2018-10-21T23:43:13.755Z,4.03
2018-10-21T23:45:41.433Z,4.00
2018-10-21T23:48:09.116Z,3.60
2018-10-21T23:50:36.799Z,4.23
2018-10-21T23:53:04.870Z,4.00
2018-10-21T23:55:32.506Z,4.03
2018-10-21T23:58:00.222Z,3.47
